Pagrindinis puslapis
METAR-TAF:

METAR-TAF

Oro uostai :

Erbilis, Irakas

platuma: 36-14-15N, ilguma: 43-57-47E, Aukštis: 415 m

Dabartinis oras

Ataskaita buvo paskelbta 1 valandą ir 9 minutes, ne 07:00 UTC
Vėjas 7 kt iš Šiaurės/Šiaurės Rytų
Temperatūra 35°C
Drėgmė 13%
Slėgis 1012 hPa
Matomumas 10 km arba daugiau
nėra debesų žemiau 1500 m ir nėra kamuolinių lietaus debesų

METAR: ORER 140700Z 03007KT CAVOK 35/03 Q1012 NOSIG

Laikas: 11:09 (08:09 UTC)

Prognozė

Ataskaita buvo paskelbta 4 valandos ir 9 minutes, ne 04:00 UTC
Prognozė galioja nuo 14 metu 06 UTC su 15 metu 06 UTC
Vėjas 2 kt nuo kintamojo kryptimis
Matomumas: 8000 m

TAF: ORER 140400Z 1406/1506 VRB02KT 8000 NSC

Orai ataskaitas ir orų prognozės (METAR, TAF).

turimą stotys yra geltonos ir raudonos taškus žemėlapyje.

Perkelti pele per norėdami pamatyti stoties vardą.

Tada spustelėkite, norėdami matyti oro stebėjimo ir prognozės.

Norėdami pakeisti žemėlapį: spustelėkite ant žalios mygtukų su juodo kryžiaus žemyn,; žalią mygtuką su brūkšneliu, jei norite nutolinti; arba žalių rodyklių gretimoms žemėlapius.


METAR-TAF: